Flight Track Log - Related Links

Times and Time Zones

All times are in EDT time to prevent confusion due to time zone crossing. See the CNS130 flight status page for this flight to view local times or setup timezone preferences in your user account.

Time Position Orientation Groundspeed Altitude Reporting Facility
EDT Latitude Longitude Course Direction KTS MPH feet Rate Location/Type
Fri 09:07:49 PM 44.7544 -68.8456 224° Southwest 111 128 5,100  Level Boston Center
Fri 09:08:49 PM 44.7256 -68.8858 225° Southwest 130 150 7,200 2,016 Climbing Boston Center
Fri 09:09:51 PM 44.6942 -68.9286 224° Southwest 144 166 9,200 1,839 Climbing Boston Center
Fri 09:10:53 PM 44.6631 -68.9706 224° Southwest 150 173 11,000 1,377 Climbing Boston Center
Fri 09:11:53 PM 44.6300 -69.0144 223° Southwest 158 182 12,000 504 Climbing Boston Center
Fri 09:12:00 PM 44.5501 -69.1333 180° South  Level FlightAware Approximate
Fri 09:12:52 PM 44.5892 -69.0725 225° Southwest 195 224 12,000  Level Boston Center
Fri 09:13:54 PM 44.5444 -69.1328 224° Southwest 217 250 12,000  Level Boston Center
Fri 09:14:54 PM 44.4994 -69.1939 224° Southwest 219 252 12,000  Level Boston Center
Fri 09:15:54 PM 44.4547 -69.2544 224° Southwest 220 253 12,000  Level Boston Center
Fri 09:16:55 PM 44.4078 -69.3156 223° Southwest 227 261 12,000  Level Boston Center
Fri 09:17:55 PM 44.3589 -69.3717 219° Southwest 228 262 12,000  Level Boston Center
Fri 09:18:59 PM 44.3125 -69.4275 221° Southwest 223 257 12,000  Level Boston Center
Fri 09:20:00 PM 44.2642 -69.4822 219° Southwest 221 254 12,000  Level Boston Center
Fri 09:21:01 PM 44.2183 -69.5350 220° Southwest 217 250 12,000  Level Boston Center
Fri 09:22:02 PM 44.1683 -69.5950 221° Southwest 217 250 12,000  Level Boston Center
Fri 09:23:02 PM 44.1217 -69.6486 220° Southwest 218 251 12,000  Level Boston Center
Fri 09:24:04 PM 44.0733 -69.7050 220° Southwest 213 245 12,000  Level Boston Center
Fri 09:25:04 PM 44.0275 -69.7581 220° Southwest 214 246 12,000  Level Boston Center
Fri 09:26:04 PM 43.9819 -69.8089 219° Southwest 212 244 12,000  Level Boston Center
Fri 09:27:06 PM 43.9372 -69.8614 220° Southwest 211 243 12,000  Level Boston Center
Fri 09:28:07 PM 43.8914 -69.9139 220° Southwest 212 244 12,000  Level Boston Center
Fri 09:29:07 PM 43.8422 -69.9692 219° Southwest 211 243 12,000  Level Boston Center
Fri 09:30:08 PM 43.7967 -70.0217 220° Southwest 212 244 12,000 -98 Level Boston Center
Fri 09:31:09 PM 43.7514 -70.0736 220° Southwest 212 244 11,800 -496 Descending Boston Center
Fri 09:32:09 PM 43.7031 -70.1272 219° Southwest 221 254 11,000 -393 Descending Boston Center
Fri 09:33:11 PM 43.6569 -70.1803 220° Southwest 218 251 11,000 -500 Level Boston Center
Fri 09:34:09 PM 43.6108 -70.2319 219° Southwest 216 249 10,000 -984 Descending Boston Center
Fri 09:35:13 PM 43.5658 -70.2817 219° Southwest 211 243 9,000 -984 Descending Boston Center
Fri 09:36:11 PM 43.5228 -70.3303 219° Southwest 205 236 8,000 -1,041 Descending Boston Center
Fri 09:37:14 PM 43.4758 -70.3825 219° Southwest 202 232 6,900 -1,016 Descending Boston Center
Fri 09:38:15 PM 43.4303 -70.4336 219° Southwest 207 238 5,900 -984 Descending Boston Center
Fri 09:39:16 PM 43.3817 -70.4883 219° Southwest 221 254 4,900 -942 Descending Boston Center
Fri 09:40:16 PM 43.3528 -70.5661 243° Southwest 228 262 4,000 -393 Descending Boston Center
Fri 09:41:18 PM 43.3344 -70.6442 252° West 219 252 4,100 50 Climbing Boston Center
Fri 09:42:16 PM 43.3167 -70.7194 252° West 213 245 4,100 -403 Level Boston Center
Fri 09:43:17 PM 43.2964 -70.8019 251° West 213 245 3,300 -878 Descending Boston Center
Fri 09:44:19 PM 43.2775 -70.8761 251° West 209 241 2,300 -629 Descending Boston Center
Fri 09:45:21 PM 43.2447 -70.9289 230° Southwest 183 211 2,000 -99 Descending Boston Center
Fri 09:46:20 PM 43.2067 -70.9303 182° South 146 168 2,100  Climbing Boston Center
Fri 09:47:20 PM 43.1756 -70.9042 149° Southeast 134 154 2,000 -198 Descending Boston Center
Fri 09:48:21 PM 43.1503 -70.8833 149° Southeast 106 122 1,700 -439 Descending Boston Center
Fri 09:49:23 PM 43.1269 -70.8633 148° Southeast 103 119 1,100 -541 Descending Boston Center
Fri 09:50:23 PM 43.1044 -70.8447 149° Southeast 98 113 600 -450 Descending Boston Center
Fri 09:51:23 PM 43.0850 -70.8286 149° Southeast 94 108 200 -400 Descending Boston Center

Login

Don't have an account? Register now (free) for customized features, flight alerts, and more!